Time;durP1;ratioP1;P1;durP2;ratioP2;P2;SDS_P1;SDS_P2;PMS_P1;PMS_P2;Temp;Humidity;BMP_temperature;BMP_pressure;BME280_temperature;BME280_humidity;BME280_pressure;Samples;Min_cycle;Max_cycle;Signal;HPM_P1;HPM_P2
2023/06/22 03:33:13;;;;;;;13.00;10.90;;;;;;;24.83;47.60;100925.66;107860;1262;1441949;-89
2023/06/22 03:35:38;;;;;;;14.00;11.50;;;;;;;24.84;47.72;100926.77;109486;1263;66937;-90
2023/06/22 03:38:05;;;;;;;14.90;11.40;;;;;;;24.85;47.72;100928.02;109321;1263;66967;-89
2023/06/22 03:40:31;;;;;;;17.40;11.60;;;;;;;24.85;47.69;100928.36;109481;1263;67107;-88
2023/06/22 03:42:56;;;;;;;21.10;13.90;;;;;;;24.86;47.90;100928.20;109503;1262;67571;-89
2023/06/22 03:45:25;;;;;;;16.50;13.00;;;;;;;24.86;48.10;100926.82;109462;1260;67072;-89
2023/06/22 03:47:51;;;;;;;15.70;13.50;;;;;;;24.86;48.33;100927.48;109599;1260;67854;-88
2023/06/22 03:50:16;;;;;;;17.60;13.30;;;;;;;24.86;48.33;100932.02;109486;1263;67552;-87
2023/06/22 03:52:45;;;;;;;20.00;14.60;;;;;;;24.85;48.48;100935.98;108906;1263;554722;-93
2023/06/22 03:55:30;;;;;;;19.60;13.80;;;;;;;24.82;48.54;100940.59;109403;1262;67738;31
2023/06/22 03:57:57;;;;;;;16.20;13.70;;;;;;;24.79;48.85;100938.41;109510;1260;67565;-88
2023/06/22 04:00:26;;;;;;;15.40;13.50;;;;;;;24.77;48.79;100935.17;109294;1262;66782;-87
2023/06/22 04:02:52;;;;;;;16.50;13.80;;;;;;;24.74;48.70;100942.36;109293;1262;67607;-88
2023/06/22 04:05:19;;;;;;;20.80;13.50;;;;;;;24.72;48.97;100946.64;109493;1261;68696;-88
2023/06/22 04:10:18;;;;;;;17.70;13.70;;;;;;;24.68;49.26;100933.98;108997;1263;560443;-87
2023/06/22 04:12:43;;;;;;;16.50;13.90;;;;;;;24.67;49.26;100930.80;109463;1261;68302;-88
2023/06/22 04:15:09;;;;;;;18.90;13.20;;;;;;;24.67;49.16;100940.48;109464;1262;67568;-89
2023/06/22 04:17:35;;;;;;;18.30;14.10;;;;;;;24.65;49.31;100942.80;109236;1263;67948;-88
2023/06/22 04:20:00;;;;;;;17.00;14.00;;;;;;;24.64;49.35;100940.91;109546;1263;67769;-88
2023/06/22 04:22:26;;;;;;;18.20;14.30;;;;;;;24.63;49.41;100944.47;109165;1262;67677;-88
2023/06/22 04:24:52;;;;;;;16.00;13.20;;;;;;;24.62;49.43;100947.16;109428;1262;67917;-87
2023/06/22 04:27:19;;;;;;;16.70;13.70;;;;;;;24.61;49.35;100944.33;109239;1263;67659;-87
2023/06/22 04:29:48;;;;;;;17.70;12.80;;;;;;;24.60;49.25;100945.36;109374;1263;67476;-86
2023/06/22 04:32:15;;;;;;;18.70;12.50;;;;;;;24.60;49.56;100949.54;109103;1263;67795;-87
2023/06/22 04:34:40;;;;;;;17.50;13.10;;;;;;;24.59;49.66;100949.65;109397;1263;67645;-86
2023/06/22 04:37:06;;;;;;;18.10;12.00;;;;;;;24.59;49.43;100950.88;109198;1263;68003;-90
2023/06/22 04:39:31;;;;;;;16.10;11.90;;;;;;;24.59;49.53;100953.77;109416;1264;67608;-87
2023/06/22 04:42:00;;;;;;;17.40;12.40;;;;;;;24.59;49.64;100953.40;109328;1262;67565;-87
2023/06/22 04:44:25;;;;;;;13.10;11.00;;;;;;;24.59;49.81;100953.45;109195;1262;67649;-87
2023/06/22 04:46:53;;;;;;;16.20;11.50;;;;;;;24.59;49.65;100957.31;109294;1263;67523;-86
2023/06/22 04:49:20;;;;;;;14.60;11.50;;;;;;;24.60;49.48;100958.09;109045;1263;67586;-87
2023/06/22 04:51:45;;;;;;;14.20;10.90;;;;;;;24.61;49.53;100961.05;109458;1262;67593;-87
2023/06/22 04:54:11;;;;;;;13.20;10.10;;;;;;;24.61;49.40;100960.48;109211;1263;67263;-86
2023/06/22 04:56:36;;;;;;;12.40;10.40;;;;;;;24.61;49.41;100962.09;109436;1263;67085;-86
2023/06/22 04:59:03;;;;;;;10.60;9.50;;;;;;;24.61;49.11;100959.83;109495;1262;67510;-86
2023/06/22 05:01:30;;;;;;;13.00;9.30;;;;;;;24.60;49.18;100959.73;109415;1263;66852;-87
2023/06/22 05:04:01;;;;;;;21.70;9.70;;;;;;;24.60;48.93;100963.79;109441;1263;74235;-91
2023/06/22 05:06:26;;;;;;;13.90;9.50;;;;;;;24.60;48.63;100965.28;109140;1261;67613;-87
2023/06/22 05:08:58;;;;;;;13.20;9.30;;;;;;;24.62;48.80;100964.64;109177;1263;67638;-87
2023/06/22 05:11:25;;;;;;;12.00;9.30;;;;;;;24.63;48.60;100958.84;109317;1263;68059;-87
2023/06/22 05:13:50;;;;;;;15.70;9.50;;;;;;;24.64;48.60;100957.42;109217;1263;67573;-87
2023/06/22 05:16:16;;;;;;;13.00;9.40;;;;;;;24.66;48.36;100955.67;109314;1263;67532;-87
2023/06/22 05:18:43;;;;;;;13.90;9.20;;;;;;;24.68;48.37;100952.77;109239;1263;68305;-87
2023/06/22 05:21:16;;;;;;;11.30;8.30;;;;;;;24.69;48.21;100957.02;109259;1262;66904;-87
2023/06/22 05:23:41;;;;;;;8.90;7.60;;;;;;;24.71;48.02;100960.07;109189;1263;67036;-86
2023/06/22 05:26:09;;;;;;;10.20;7.90;;;;;;;24.71;47.74;100955.75;109291;1262;67138;-87
2023/06/22 05:28:34;;;;;;;10.20;7.40;;;;;;;24.72;47.71;100958.06;109098;1263;67677;-87
2023/06/22 05:31:00;;;;;;;12.00;7.60;;;;;;;24.73;47.42;100960.33;109184;1263;67624;-87
2023/06/22 05:33:25;;;;;;;12.30;7.50;;;;;;;24.73;47.26;100964.30;109122;1263;67685;-87
2023/06/22 05:35:51;;;;;;;17.20;7.20;;;;;;;24.74;47.08;100962.17;109268;1263;67279;-87
2023/06/22 05:38:16;;;;;;;21.10;7.70;;;;;;;24.74;47.27;100964.64;109268;1263;67804;-87
2023/06/22 05:40:42;;;;;;;18.00;7.80;;;;;;;24.76;46.88;100965.82;109208;1262;67541;-87
2023/06/22 05:43:10;;;;;;;15.40;7.60;;;;;;;24.77;46.96;100968.84;109253;1263;67904;-87
2023/06/22 05:45:36;;;;;;;13.20;7.50;;;;;;;24.78;46.97;100968.58;109094;1263;67699;-87
2023/06/22 05:48:01;;;;;;;13.30;7.70;;;;;;;24.79;46.87;100971.45;109076;1263;67558;-86
2023/06/22 05:50:27;;;;;;;16.70;7.10;;;;;;;24.80;46.73;100972.77;109221;1262;67708;-87
2023/06/22 05:52:52;;;;;;;14.20;6.90;;;;;;;24.81;46.61;100977.45;109296;1264;67511;-87
2023/06/22 05:55:18;;;;;;;12.40;7.30;;;;;;;24.83;46.50;100980.16;109213;1266;67844;-87
2023/06/22 05:57:53;;;;;;;8.20;6.90;;;;;;;24.84;46.39;100980.16;109149;1262;67676;-91
2023/06/22 06:00:19;;;;;;;10.70;7.20;;;;;;;24.85;46.54;100980.24;109315;1263;74312;-87
2023/06/22 06:02:44;;;;;;;13.60;6.70;;;;;;;24.86;46.39;100981.05;109267;1263;66919;-87
2023/06/22 06:05:13;;;;;;;9.70;6.80;;;;;;;24.87;46.34;100980.69;109236;1263;67596;-87
2023/06/22 06:07:39;;;;;;;10.30;7.30;;;;;;;24.88;46.32;100982.39;109223;1266;67549;-87
2023/06/22 06:10:06;;;;;;;14.40;6.80;;;;;;;24.89;46.30;100984.49;109291;1263;67621;-88
2023/06/22 06:15:08;;;;;;;10.50;6.60;;;;;;;24.91;46.41;100988.54;109488;1261;68062;-88
2023/06/22 06:17:34;;;;;;;11.00;6.90;;;;;;;24.93;46.16;100988.57;109467;1261;68048;-88
2023/06/22 06:20:00;;;;;;;7.60;6.30;;;;;;;24.95;46.26;100985.83;109520;1261;67315;-87
2023/06/22 06:22:25;;;;;;;9.80;6.80;;;;;;;24.96;46.04;100985.80;109345;1262;67527;-87
2023/06/22 06:24:51;;;;;;;10.90;6.70;;;;;;;24.98;45.85;100983.44;109500;1261;67567;-89
2023/06/22 06:27:19;;;;;;;11.80;7.00;;;;;;;24.99;45.73;100989.39;109410;1262;67680;-87
2023/06/22 06:29:48;;;;;;;9.50;6.70;;;;;;;25.00;45.66;100985.73;109415;1261;67939;-87
2023/06/22 06:32:14;;;;;;;7.80;6.80;;;;;;;25.01;45.63;100983.56;109476;1260;66938;-87
2023/06/22 06:34:40;;;;;;;11.00;6.60;;;;;;;25.01;45.94;100983.05;109449;1262;67649;-88
2023/06/22 06:40:16;;;;;;;8.50;6.90;;;;;;;25.04;45.69;100980.65;109472;1260;67116;-89
2023/06/22 06:43:03;;;;;;;10.50;6.50;;;;;;;25.04;45.58;100980.35;109546;1261;67033;-90
2023/06/22 07:12:06;;;;;;;8.90;6.60;;;;;;;25.18;45.06;100971.72;109311;1263;67581;-88
2023/06/22 07:14:32;;;;;;;7.40;6.30;;;;;;;25.19;45.09;100973.72;109297;1262;67370;-90
2023/06/22 07:17:02;;;;;;;7.40;6.00;;;;;;;25.21;45.08;100974.53;109293;1262;75333;-89
2023/06/22 07:32:57;;;;;;;9.90;7.60;;;;;;;25.32;44.85;100978.17;109478;1263;67617;-89
2023/06/22 07:35:24;;;;;;;11.20;7.60;;;;;;;25.34;45.07;100976.77;109077;1263;67375;-89
2023/06/22 07:37:50;;;;;;;10.40;7.10;;;;;;;25.36;44.93;100977.66;109261;1263;67063;-88
2023/06/22 07:54:05;;;;;;;12.00;7.70;;;;;;;25.46;44.74;100963.94;109482;1262;67242;-89
2023/06/22 07:59:04;;;;;;;8.80;8.00;;;;;;;25.50;44.84;100968.64;109405;1262;73112;-89
2023/06/22 08:34:30;;;;;;;12.90;11.60;;;;;;;25.57;44.58;100980.61;109172;1260;560207;-93
2023/06/22 09:00:43;;;;;;;9.50;8.20;;;;;;;25.61;44.22;100970.89;109504;1260;66978;-89
2023/06/22 09:06:20;;;;;;;9.10;8.20;;;;;;;25.64;44.06;100967.40;109417;1262;66832;-87
2023/06/22 09:08:46;;;;;;;11.60;10.40;;;;;;;25.66;43.89;100966.74;109496;1261;74328;-90
2023/06/22 09:14:33;;;;;;;11.60;10.10;;;;;;;25.68;43.73;100965.75;109498;1261;66962;-91
2023/06/22 09:31:55;;;;;;;11.90;10.40;;;;;;;25.78;43.59;100948.98;109505;1260;67153;-92
2023/06/22 09:40:27;;;;;;;17.50;10.50;;;;;;;25.84;43.26;100944.27;109246;1260;559911;-93
2023/06/22 09:43:43;;;;;;;14.70;9.00;;;;;;;25.85;43.23;100940.17;109063;1260;554721;-92
2023/06/22 12:39:37;;;;;;;10.90;9.40;;;;;;;26.10;44.27;100835.00;109490;1262;66855;-92
2023/06/22 12:57:36;;;;;;;10.70;8.90;;;;;;;26.10;44.66;100823.96;109726;1260;74401;-90
2023/06/22 13:56:35;;;;;;;11.70;9.50;;;;;;;26.05;44.48;100777.39;109396;1263;66849;-90
2023/06/22 15:58:23;;;;;;;10.00;9.00;;;;;;;25.93;44.28;100762.58;109508;1263;67726;-93
2023/06/22 17:41:28;;;;;;;9.30;8.40;;;;;;;25.84;44.42;100774.27;109687;1260;66964;-92
2023/06/22 19:55:28;;;;;;;11.40;10.00;;;;;;;25.77;46.10;100829.52;109726;1260;74478;31
